sensor_id;sensor_type;location;lat;lon;timestamp;P1;durP1;ratioP1;P2;durP2;ratioP2
51738;SDS011;37815;52.692;6.226;2023-02-26T00:02:35;2.67;;;1.13;;
51738;SDS011;37815;52.692;6.226;2023-02-26T00:07:35;1.80;;;1.10;;
51738;SDS011;37815;52.692;6.226;2023-02-26T00:12:36;1.23;;;1.00;;
51738;SDS011;37815;52.692;6.226;2023-02-26T00:23:00;2.83;;;1.00;;
51738;SDS011;37815;52.692;6.226;2023-02-26T00:28:01;3.53;;;1.10;;
51738;SDS011;37815;52.692;6.226;2023-02-26T00:33:02;2.70;;;1.15;;
51738;SDS011;37815;52.692;6.226;2023-02-26T00:38:04;1.95;;;0.95;;
51738;SDS011;37815;52.692;6.226;2023-02-26T00:43:16;2.00;;;0.90;;
51738;SDS011;37815;52.692;6.226;2023-02-26T00:48:21;1.70;;;0.68;;
51738;SDS011;37815;52.692;6.226;2023-02-26T00:58:48;2.67;;;1.02;;
51738;SDS011;37815;52.692;6.226;2023-02-26T01:03:48;1.75;;;0.88;;
51738;SDS011;37815;52.692;6.226;2023-02-26T01:08:54;3.33;;;0.77;;
51738;SDS011;37815;52.692;6.226;2023-02-26T01:14:07;1.63;;;1.00;;
51738;SDS011;37815;52.692;6.226;2023-02-26T01:19:12;2.78;;;1.00;;
51738;SDS011;37815;52.692;6.226;2023-02-26T01:24:23;1.45;;;0.90;;
51738;SDS011;37815;52.692;6.226;2023-02-26T01:29:25;1.08;;;0.80;;
51738;SDS011;37815;52.692;6.226;2023-02-26T01:34:42;0.70;;;0.50;;
51738;SDS011;37815;52.692;6.226;2023-02-26T01:40:02;1.92;;;0.82;;
51738;SDS011;37815;52.692;6.226;2023-02-26T01:45:30;1.63;;;0.80;;
51738;SDS011;37815;52.692;6.226;2023-02-26T01:50:34;1.85;;;0.70;;
51738;SDS011;37815;52.692;6.226;2023-02-26T01:55:37;0.90;;;0.60;;
51738;SDS011;37815;52.692;6.226;2023-02-26T02:00:42;1.45;;;0.60;;
51738;SDS011;37815;52.692;6.226;2023-02-26T02:05:44;1.63;;;0.60;;
51738;SDS011;37815;52.692;6.226;2023-02-26T02:10:51;0.52;;;0.47;;
51738;SDS011;37815;52.692;6.226;2023-02-26T02:16:01;0.77;;;0.50;;
51738;SDS011;37815;52.692;6.226;2023-02-26T02:26:29;1.33;;;0.73;;
51738;SDS011;37815;52.692;6.226;2023-02-26T02:31:56;3.83;;;0.50;;
51738;SDS011;37815;52.692;6.226;2023-02-26T02:37:01;1.17;;;0.52;;
51738;SDS011;37815;52.692;6.226;2023-02-26T02:47:34;1.92;;;0.57;;
51738;SDS011;37815;52.692;6.226;2023-02-26T02:58:16;0.82;;;0.40;;
51738;SDS011;37815;52.692;6.226;2023-02-26T03:03:34;0.63;;;0.50;;
51738;SDS011;37815;52.692;6.226;2023-02-26T03:08:56;0.77;;;0.35;;
51738;SDS011;37815;52.692;6.226;2023-02-26T03:14:00;1.35;;;0.60;;
51738;SDS011;37815;52.692;6.226;2023-02-26T03:19:17;1.55;;;0.73;;
51738;SDS011;37815;52.692;6.226;2023-02-26T03:29:49;2.65;;;0.70;;
51738;SDS011;37815;52.692;6.226;2023-02-26T03:40:02;1.35;;;0.65;;
51738;SDS011;37815;52.692;6.226;2023-02-26T03:45:11;1.33;;;0.52;;
51738;SDS011;37815;52.692;6.226;2023-02-26T03:50:35;0.98;;;0.50;;
51738;SDS011;37815;52.692;6.226;2023-02-26T03:55:44;1.13;;;0.50;;
51738;SDS011;37815;52.692;6.226;2023-02-26T04:00:54;1.58;;;0.40;;
51738;SDS011;37815;52.692;6.226;2023-02-26T04:06:03;4.63;;;0.60;;
51738;SDS011;37815;52.692;6.226;2023-02-26T04:11:05;1.70;;;0.60;;
51738;SDS011;37815;52.692;6.226;2023-02-26T04:16:12;0.60;;;0.40;;
51738;SDS011;37815;52.692;6.226;2023-02-26T04:21:15;0.50;;;0.40;;
51738;SDS011;37815;52.692;6.226;2023-02-26T04:26:17;0.93;;;0.40;;
51738;SDS011;37815;52.692;6.226;2023-02-26T04:31:18;1.27;;;0.82;;
51738;SDS011;37815;52.692;6.226;2023-02-26T04:36:19;0.65;;;0.38;;
51738;SDS011;37815;52.692;6.226;2023-02-26T04:41:19;1.10;;;0.40;;
51738;SDS011;37815;52.692;6.226;2023-02-26T04:46:20;1.38;;;0.50;;
51738;SDS011;37815;52.692;6.226;2023-02-26T04:51:21;1.65;;;0.50;;
51738;SDS011;37815;52.692;6.226;2023-02-26T04:56:22;4.30;;;0.60;;
51738;SDS011;37815;52.692;6.226;2023-02-26T05:01:22;3.92;;;0.60;;
51738;SDS011;37815;52.692;6.226;2023-02-26T05:06:23;0.38;;;0.30;;
51738;SDS011;37815;52.692;6.226;2023-02-26T05:11:24;0.80;;;0.32;;
51738;SDS011;37815;52.692;6.226;2023-02-26T05:16:25;1.15;;;0.47;;
51738;SDS011;37815;52.692;6.226;2023-02-26T05:21:25;0.90;;;0.70;;
51738;SDS011;37815;52.692;6.226;2023-02-26T05:26:26;0.75;;;0.35;;
51738;SDS011;37815;52.692;6.226;2023-02-26T05:31:27;1.05;;;0.40;;
51738;SDS011;37815;52.692;6.226;2023-02-26T05:36:28;0.68;;;0.30;;
51738;SDS011;37815;52.692;6.226;2023-02-26T05:41:29;1.88;;;0.55;;
51738;SDS011;37815;52.692;6.226;2023-02-26T05:46:30;0.63;;;0.63;;
51738;SDS011;37815;52.692;6.226;2023-02-26T05:51:30;0.57;;;0.20;;
51738;SDS011;37815;52.692;6.226;2023-02-26T05:56:31;0.52;;;0.30;;
51738;SDS011;37815;52.692;6.226;2023-02-26T06:01:31;0.80;;;0.40;;
51738;SDS011;37815;52.692;6.226;2023-02-26T06:06:33;0.82;;;0.55;;
51738;SDS011;37815;52.692;6.226;2023-02-26T06:11:34;0.40;;;0.30;;
51738;SDS011;37815;52.692;6.226;2023-02-26T06:16:34;1.52;;;0.30;;
51738;SDS011;37815;52.692;6.226;2023-02-26T06:21:35;1.35;;;0.60;;
51738;SDS011;37815;52.692;6.226;2023-02-26T06:26:36;0.60;;;0.22;;
51738;SDS011;37815;52.692;6.226;2023-02-26T06:31:36;2.28;;;0.52;;
51738;SDS011;37815;52.692;6.226;2023-02-26T06:36:37;1.05;;;0.40;;
51738;SDS011;37815;52.692;6.226;2023-02-26T06:41:37;1.75;;;0.40;;
51738;SDS011;37815;52.692;6.226;2023-02-26T06:46:38;0.60;;;0.30;;
51738;SDS011;37815;52.692;6.226;2023-02-26T06:51:39;0.98;;;0.30;;
51738;SDS011;37815;52.692;6.226;2023-02-26T06:56:40;0.40;;;0.30;;
51738;SDS011;37815;52.692;6.226;2023-02-26T07:01:40;3.20;;;0.40;;
51738;SDS011;37815;52.692;6.226;2023-02-26T07:06:41;0.50;;;0.20;;
51738;SDS011;37815;52.692;6.226;2023-02-26T07:11:42;0.43;;;0.22;;
51738;SDS011;37815;52.692;6.226;2023-02-26T07:16:43;1.25;;;0.32;;
51738;SDS011;37815;52.692;6.226;2023-02-26T07:21:43;1.30;;;0.40;;
51738;SDS011;37815;52.692;6.226;2023-02-26T07:26:44;1.00;;;0.77;;
51738;SDS011;37815;52.692;6.226;2023-02-26T07:31:44;2.10;;;0.38;;
51738;SDS011;37815;52.692;6.226;2023-02-26T07:36:45;0.55;;;0.32;;
51738;SDS011;37815;52.692;6.226;2023-02-26T07:41:46;1.58;;;0.40;;
51738;SDS011;37815;52.692;6.226;2023-02-26T07:46:46;1.33;;;0.28;;
51738;SDS011;37815;52.692;6.226;2023-02-26T07:51:47;1.05;;;0.38;;
51738;SDS011;37815;52.692;6.226;2023-02-26T07:56:48;2.30;;;0.32;;
51738;SDS011;37815;52.692;6.226;2023-02-26T08:01:55;0.32;;;0.30;;
51738;SDS011;37815;52.692;6.226;2023-02-26T08:06:56;0.63;;;0.40;;
51738;SDS011;37815;52.692;6.226;2023-02-26T08:11:57;1.52;;;0.40;;
51738;SDS011;37815;52.692;6.226;2023-02-26T08:16:58;1.20;;;0.30;;
51738;SDS011;37815;52.692;6.226;2023-02-26T08:21:58;0.28;;;0.20;;
51738;SDS011;37815;52.692;6.226;2023-02-26T08:26:59;1.13;;;0.40;;
51738;SDS011;37815;52.692;6.226;2023-02-26T08:31:59;1.25;;;0.30;;
51738;SDS011;37815;52.692;6.226;2023-02-26T08:37:00;1.05;;;0.30;;
51738;SDS011;37815;52.692;6.226;2023-02-26T08:42:01;0.55;;;0.25;;
51738;SDS011;37815;52.692;6.226;2023-02-26T08:47:01;0.95;;;0.30;;
51738;SDS011;37815;52.692;6.226;2023-02-26T08:52:02;1.73;;;0.32;;
51738;SDS011;37815;52.692;6.226;2023-02-26T08:57:03;2.38;;;0.45;;
51738;SDS011;37815;52.692;6.226;2023-02-26T09:02:04;1.15;;;0.50;;
51738;SDS011;37815;52.692;6.226;2023-02-26T09:07:04;0.63;;;0.30;;
51738;SDS011;37815;52.692;6.226;2023-02-26T09:12:05;0.50;;;0.28;;
51738;SDS011;37815;52.692;6.226;2023-02-26T09:17:06;0.30;;;0.22;;
51738;SDS011;37815;52.692;6.226;2023-02-26T09:22:07;1.30;;;0.70;;
51738;SDS011;37815;52.692;6.226;2023-02-26T09:27:07;2.22;;;0.22;;
51738;SDS011;37815;52.692;6.226;2023-02-26T09:32:08;0.80;;;0.20;;
51738;SDS011;37815;52.692;6.226;2023-02-26T09:37:09;0.25;;;0.15;;
51738;SDS011;37815;52.692;6.226;2023-02-26T09:42:23;1.48;;;0.20;;
51738;SDS011;37815;52.692;6.226;2023-02-26T09:47:46;0.43;;;0.20;;
51738;SDS011;37815;52.692;6.226;2023-02-26T09:52:54;0.28;;;0.20;;
51738;SDS011;37815;52.692;6.226;2023-02-26T10:08:14;0.20;;;0.15;;
51738;SDS011;37815;52.692;6.226;2023-02-26T10:18:36;2.45;;;0.20;;
51738;SDS011;37815;52.692;6.226;2023-02-26T10:23:44;0.50;;;0.30;;
51738;SDS011;37815;52.692;6.226;2023-02-26T10:39:44;0.40;;;0.20;;
51738;SDS011;37815;52.692;6.226;2023-02-26T10:50:33;1.08;;;0.40;;
51738;SDS011;37815;52.692;6.226;2023-02-26T10:55:42;0.75;;;0.35;;
51738;SDS011;37815;52.692;6.226;2023-02-26T11:00:53;1.20;;;0.30;;
51738;SDS011;37815;52.692;6.226;2023-02-26T11:05:55;2.50;;;0.40;;
51738;SDS011;37815;52.692;6.226;2023-02-26T11:10:59;3.70;;;0.55;;
51738;SDS011;37815;52.692;6.226;2023-02-26T11:16:15;1.73;;;0.38;;
51738;SDS011;37815;52.692;6.226;2023-02-26T11:21:18;2.88;;;0.57;;
51738;SDS011;37815;52.692;6.226;2023-02-26T11:26:30;1.05;;;0.32;;
51738;SDS011;37815;52.692;6.226;2023-02-26T11:31:33;2.15;;;0.30;;
51738;SDS011;37815;52.692;6.226;2023-02-26T11:36:35;2.97;;;0.50;;
51738;SDS011;37815;52.692;6.226;2023-02-26T11:41:38;1.90;;;0.43;;
51738;SDS011;37815;52.692;6.226;2023-02-26T11:46:58;3.10;;;0.40;;
51738;SDS011;37815;52.692;6.226;2023-02-26T11:52:04;0.85;;;0.30;;
51738;SDS011;37815;52.692;6.226;2023-02-26T11:57:17;2.33;;;0.43;;
51738;SDS011;37815;52.692;6.226;2023-02-26T12:02:22;3.88;;;0.32;;
51738;SDS011;37815;52.692;6.226;2023-02-26T12:07:26;1.88;;;0.30;;
51738;SDS011;37815;52.692;6.226;2023-02-26T12:44:06;2.30;;;0.28;;
51738;SDS011;37815;52.692;6.226;2023-02-26T12:54:52;1.05;;;0.38;;
51738;SDS011;37815;52.692;6.226;2023-02-26T13:10:35;1.00;;;0.50;;
51738;SDS011;37815;52.692;6.226;2023-02-26T13:20:58;2.10;;;0.63;;
51738;SDS011;37815;52.692;6.226;2023-02-26T13:26:05;0.45;;;0.15;;
51738;SDS011;37815;52.692;6.226;2023-02-26T13:31:13;1.83;;;0.57;;
51738;SDS011;37815;52.692;6.226;2023-02-26T13:36:16;1.45;;;0.40;;
51738;SDS011;37815;52.692;6.226;2023-02-26T13:41:28;0.95;;;0.20;;
51738;SDS011;37815;52.692;6.226;2023-02-26T13:52:26;0.50;;;0.20;;
51738;SDS011;37815;52.692;6.226;2023-02-26T13:57:36;0.63;;;0.30;;
51738;SDS011;37815;52.692;6.226;2023-02-26T14:08:09;0.77;;;0.28;;
51738;SDS011;37815;52.692;6.226;2023-02-26T14:13:18;1.52;;;0.30;;
51738;SDS011;37815;52.692;6.226;2023-02-26T14:23:39;1.35;;;0.30;;
51738;SDS011;37815;52.692;6.226;2023-02-26T14:28:42;0.35;;;0.10;;
51738;SDS011;37815;52.692;6.226;2023-02-26T14:33:46;1.38;;;0.30;;
51738;SDS011;37815;52.692;6.226;2023-02-26T14:38:59;0.70;;;0.20;;
51738;SDS011;37815;52.692;6.226;2023-02-26T14:44:07;0.30;;;0.20;;
51738;SDS011;37815;52.692;6.226;2023-02-26T14:49:18;0.88;;;0.40;;
51738;SDS011;37815;52.692;6.226;2023-02-26T15:10:43;0.43;;;0.20;;
51738;SDS011;37815;52.692;6.226;2023-02-26T15:15:55;1.83;;;0.30;;
51738;SDS011;37815;52.692;6.226;2023-02-26T15:26:19;1.13;;;0.17;;
51738;SDS011;37815;52.692;6.226;2023-02-26T15:31:41;1.38;;;0.40;;
51738;SDS011;37815;52.692;6.226;2023-02-26T15:36:46;0.82;;;0.10;;
51738;SDS011;37815;52.692;6.226;2023-02-26T15:41:49;0.85;;;0.20;;
51738;SDS011;37815;52.692;6.226;2023-02-26T15:46:58;1.23;;;0.30;;
51738;SDS011;37815;52.692;6.226;2023-02-26T15:52:02;2.03;;;0.50;;
51738;SDS011;37815;52.692;6.226;2023-02-26T15:57:04;1.50;;;0.38;;
51738;SDS011;37815;52.692;6.226;2023-02-26T16:02:07;0.77;;;0.40;;
51738;SDS011;37815;52.692;6.226;2023-02-26T16:07:18;1.05;;;0.30;;
51738;SDS011;37815;52.692;6.226;2023-02-26T16:17:29;0.85;;;0.30;;
51738;SDS011;37815;52.692;6.226;2023-02-26T16:22:33;3.72;;;0.30;;
51738;SDS011;37815;52.692;6.226;2023-02-26T16:27:37;1.90;;;0.38;;
51738;SDS011;37815;52.692;6.226;2023-02-26T16:32:39;2.20;;;0.50;;
51738;SDS011;37815;52.692;6.226;2023-02-26T16:37:42;1.85;;;0.30;;
51738;SDS011;37815;52.692;6.226;2023-02-26T16:42:52;1.90;;;0.38;;
51738;SDS011;37815;52.692;6.226;2023-02-26T16:48:17;2.40;;;0.43;;
51738;SDS011;37815;52.692;6.226;2023-02-26T16:53:30;0.82;;;0.32;;
51738;SDS011;37815;52.692;6.226;2023-02-26T16:58:43;1.67;;;0.30;;
51738;SDS011;37815;52.692;6.226;2023-02-26T17:03:47;1.30;;;0.50;;
51738;SDS011;37815;52.692;6.226;2023-02-26T17:08:58;1.15;;;0.30;;
51738;SDS011;37815;52.692;6.226;2023-02-26T17:19:21;2.00;;;0.50;;
51738;SDS011;37815;52.692;6.226;2023-02-26T17:24:37;1.90;;;0.50;;
51738;SDS011;37815;52.692;6.226;2023-02-26T17:29:41;4.95;;;0.63;;
51738;SDS011;37815;52.692;6.226;2023-02-26T17:34:44;2.30;;;0.68;;
51738;SDS011;37815;52.692;6.226;2023-02-26T17:39:45;2.00;;;0.82;;
51738;SDS011;37815;52.692;6.226;2023-02-26T17:44:45;7.40;;;0.70;;
51738;SDS011;37815;52.692;6.226;2023-02-26T17:49:46;1.58;;;0.50;;
51738;SDS011;37815;52.692;6.226;2023-02-26T17:54:47;5.10;;;0.63;;
51738;SDS011;37815;52.692;6.226;2023-02-26T17:59:48;3.28;;;0.60;;
51738;SDS011;37815;52.692;6.226;2023-02-26T18:04:49;2.03;;;0.70;;
51738;SDS011;37815;52.692;6.226;2023-02-26T18:09:49;3.60;;;0.60;;
51738;SDS011;37815;52.692;6.226;2023-02-26T18:14:50;3.05;;;0.55;;
51738;SDS011;37815;52.692;6.226;2023-02-26T18:19:51;4.63;;;1.48;;
51738;SDS011;37815;52.692;6.226;2023-02-26T18:24:52;1.77;;;0.80;;
51738;SDS011;37815;52.692;6.226;2023-02-26T18:29:53;2.08;;;1.17;;
51738;SDS011;37815;52.692;6.226;2023-02-26T18:34:54;3.15;;;0.88;;
51738;SDS011;37815;52.692;6.226;2023-02-26T18:39:54;3.72;;;1.00;;
51738;SDS011;37815;52.692;6.226;2023-02-26T18:44:55;1.63;;;0.70;;
51738;SDS011;37815;52.692;6.226;2023-02-26T18:49:56;4.20;;;0.90;;
51738;SDS011;37815;52.692;6.226;2023-02-26T18:54:57;2.35;;;0.77;;
51738;SDS011;37815;52.692;6.226;2023-02-26T18:59:59;2.28;;;0.95;;
51738;SDS011;37815;52.692;6.226;2023-02-26T19:04:59;2.13;;;0.88;;
51738;SDS011;37815;52.692;6.226;2023-02-26T19:10:00;1.98;;;0.80;;
51738;SDS011;37815;52.692;6.226;2023-02-26T19:15:02;4.45;;;0.90;;
51738;SDS011;37815;52.692;6.226;2023-02-26T19:20:03;2.88;;;1.15;;
51738;SDS011;37815;52.692;6.226;2023-02-26T19:25:04;1.25;;;0.60;;
51738;SDS011;37815;52.692;6.226;2023-02-26T19:30:05;1.83;;;0.70;;
51738;SDS011;37815;52.692;6.226;2023-02-26T19:35:07;2.15;;;0.90;;
51738;SDS011;37815;52.692;6.226;2023-02-26T19:40:08;1.92;;;0.55;;
51738;SDS011;37815;52.692;6.226;2023-02-26T19:45:14;3.53;;;1.65;;
51738;SDS011;37815;52.692;6.226;2023-02-26T19:50:16;1.38;;;0.70;;
51738;SDS011;37815;52.692;6.226;2023-02-26T19:55:18;1.95;;;0.93;;
51738;SDS011;37815;52.692;6.226;2023-02-26T20:00:19;2.58;;;0.60;;
51738;SDS011;37815;52.692;6.226;2023-02-26T20:05:20;0.95;;;0.70;;
51738;SDS011;37815;52.692;6.226;2023-02-26T20:10:21;1.98;;;0.80;;
51738;SDS011;37815;52.692;6.226;2023-02-26T20:15:23;3.28;;;1.30;;
51738;SDS011;37815;52.692;6.226;2023-02-26T20:20:24;2.05;;;0.80;;
51738;SDS011;37815;52.692;6.226;2023-02-26T20:25:25;2.33;;;0.73;;
51738;SDS011;37815;52.692;6.226;2023-02-26T20:30:26;4.47;;;1.10;;
51738;SDS011;37815;52.692;6.226;2023-02-26T20:35:27;2.53;;;1.02;;
51738;SDS011;37815;52.692;6.226;2023-02-26T20:40:27;1.83;;;1.10;;
51738;SDS011;37815;52.692;6.226;2023-02-26T20:45:28;3.55;;;1.50;;
51738;SDS011;37815;52.692;6.226;2023-02-26T20:50:29;2.72;;;1.55;;
51738;SDS011;37815;52.692;6.226;2023-02-26T20:55:30;3.20;;;1.77;;
51738;SDS011;37815;52.692;6.226;2023-02-26T21:00:31;3.33;;;1.60;;
51738;SDS011;37815;52.692;6.226;2023-02-26T21:05:32;2.95;;;1.67;;
51738;SDS011;37815;52.692;6.226;2023-02-26T21:10:34;3.15;;;1.90;;
51738;SDS011;37815;52.692;6.226;2023-02-26T21:15:35;5.43;;;1.90;;
51738;SDS011;37815;52.692;6.226;2023-02-26T21:20:36;3.47;;;1.85;;
51738;SDS011;37815;52.692;6.226;2023-02-26T21:25:36;2.85;;;1.65;;
51738;SDS011;37815;52.692;6.226;2023-02-26T21:30:38;3.33;;;2.00;;
51738;SDS011;37815;52.692;6.226;2023-02-26T21:35:39;5.43;;;2.20;;
51738;SDS011;37815;52.692;6.226;2023-02-26T21:40:40;3.22;;;1.95;;
51738;SDS011;37815;52.692;6.226;2023-02-26T21:45:40;2.45;;;1.92;;
51738;SDS011;37815;52.692;6.226;2023-02-26T21:50:43;5.07;;;2.00;;
51738;SDS011;37815;52.692;6.226;2023-02-26T21:55:43;4.43;;;2.17;;
51738;SDS011;37815;52.692;6.226;2023-02-26T22:00:44;3.95;;;2.20;;
51738;SDS011;37815;52.692;6.226;2023-02-26T22:05:45;4.63;;;1.73;;
51738;SDS011;37815;52.692;6.226;2023-02-26T22:10:48;5.57;;;2.20;;
51738;SDS011;37815;52.692;6.226;2023-02-26T22:15:49;4.57;;;2.05;;
51738;SDS011;37815;52.692;6.226;2023-02-26T22:20:49;3.33;;;2.03;;
51738;SDS011;37815;52.692;6.226;2023-02-26T22:25:50;3.50;;;2.10;;
51738;SDS011;37815;52.692;6.226;2023-02-26T22:30:50;3.05;;;1.45;;
51738;SDS011;37815;52.692;6.226;2023-02-26T22:35:54;2.05;;;1.58;;
51738;SDS011;37815;52.692;6.226;2023-02-26T22:40:56;4.35;;;2.15;;
51738;SDS011;37815;52.692;6.226;2023-02-26T22:45:56;3.50;;;1.80;;
51738;SDS011;37815;52.692;6.226;2023-02-26T22:50:57;6.68;;;1.83;;
51738;SDS011;37815;52.692;6.226;2023-02-26T22:55:58;4.53;;;1.98;;
51738;SDS011;37815;52.692;6.226;2023-02-26T23:01:03;5.60;;;1.85;;
51738;SDS011;37815;52.692;6.226;2023-02-26T23:06:05;2.63;;;1.67;;
51738;SDS011;37815;52.692;6.226;2023-02-26T23:11:07;4.88;;;1.83;;
51738;SDS011;37815;52.692;6.226;2023-02-26T23:16:08;3.60;;;1.60;;
51738;SDS011;37815;52.692;6.226;2023-02-26T23:21:10;3.15;;;1.70;;
51738;SDS011;37815;52.692;6.226;2023-02-26T23:26:11;3.90;;;1.90;;
51738;SDS011;37815;52.692;6.226;2023-02-26T23:31:12;2.35;;;1.52;;
51738;SDS011;37815;52.692;6.226;2023-02-26T23:36:12;3.30;;;1.60;;
51738;SDS011;37815;52.692;6.226;2023-02-26T23:41:13;4.43;;;1.92;;
51738;SDS011;37815;52.692;6.226;2023-02-26T23:46:14;3.33;;;1.67;;
51738;SDS011;37815;52.692;6.226;2023-02-26T23:51:15;2.72;;;1.55;;
51738;SDS011;37815;52.692;6.226;2023-02-26T23:56:15;3.08;;;1.85;;
